Time;durP1;ratioP1;P1;durP2;ratioP2;P2;SDS_P1;SDS_P2;PMS_P1;PMS_P2;Temp;Humidity;BMP_temperature;BMP_pressure;BME280_temperature;BME280_humidity;BME280_pressure;Samples;Min_cycle;Max_cycle;Signal;HPM_P1;HPM_P2
2023/04/15 00:00:16;;;;;;;6.03;1.45;;;;;;;;;;6210321;23;20381;-81
2023/04/15 00:02:48;;;;;;;8.50;1.83;;;;;;;;;;6233798;23;20024;-81
2023/04/15 00:08:33;;;;;;;4.18;1.58;;;;;;;;;;6211275;23;20405;-81
2023/04/15 00:11:31;;;;;;;4.65;1.45;;;;;;;;;;6233558;23;20016;-81
2023/04/15 00:14:06;;;;;;;6.55;1.58;;;;;;;;;;6207857;23;20100;-81
2023/04/15 00:16:54;;;;;;;8.45;1.75;;;;;;;;;;6210313;23;20425;-81
2023/04/15 00:19:25;;;;;;;4.55;1.40;;;;;;;;;;6234068;23;20017;-81
2023/04/15 00:22:07;;;;;;;4.88;1.42;;;;;;;;;;6234045;23;20424;-81
2023/04/15 00:24:33;;;;;;;3.97;1.40;;;;;;;;;;6232194;23;20028;-82
2023/04/15 00:27:07;;;;;;;10.98;1.88;;;;;;;;;;6233585;23;20017;-82
2023/04/15 00:29:34;;;;;;;4.70;1.73;;;;;;;;;;6211465;23;20388;-82
2023/04/15 00:32:00;;;;;;;6.18;1.45;;;;;;;;;;6233809;23;20020;-82
2023/04/15 00:34:36;;;;;;;4.68;1.33;;;;;;;;;;6211160;23;20016;-82
2023/04/15 00:37:33;;;;;;;4.18;1.73;;;;;;;;;;6231795;23;20019;-81
2023/04/15 00:40:02;;;;;;;6.03;1.67;;;;;;;;;;6235043;23;20027;-81
2023/04/15 00:42:33;;;;;;;8.30;1.63;;;;;;;;;;6231780;23;20028;-81
2023/04/15 00:45:15;;;;;;;;;;;;;;;;;;;;;
2023/04/15 00:50:44;;;;;;;7.78;1.83;;;;;;;;;;6209045;23;20040;-81
2023/04/15 01:07:14;;;;;;;4.45;1.67;;;;;;;;;;6233768;23;20040;-81
2023/04/15 01:13:41;;;;;;;4.32;1.83;;;;;;;;;;6243224;23;20087;-81
2023/04/15 01:19:42;;;;;;;4.85;1.38;;;;;;;;;;6242929;23;20027;-81
2023/04/15 01:29:05;;;;;;;;;;;;;;;;;;6090548;23;20038;-82
2023/04/15 01:31:56;;;;;;;6.32;2.00;;;;;;;;;;6070017;23;19980;-82
2023/04/15 01:44:21;;;;;;;4.10;1.33;;;;;;;;;;6090307;23;20022;-82
2023/04/15 01:47:16;;;;;;;5.45;1.83;;;;;;;;;;6170307;23;20024;-82
2023/04/15 01:50:41;;;;;;;;;;;;;;;;;;;;;
2023/04/15 01:53:51;;;;;;;;;;;;;;;;;;;;;
2023/04/15 02:11:31;;;;;;;4.00;1.33;;;;;;;;;;6032193;23;20064;-81
2023/04/15 02:14:05;;;;;;;4.15;1.15;;;;;;;;;;6178670;23;20180;-81
2023/04/15 02:16:35;;;;;;;5.18;1.58;;;;;;;;;;6150550;23;20525;-81
2023/04/15 02:19:26;;;;;;;4.15;1.30;;;;;;;;;;6178981;23;20017;-81
2023/04/15 02:25:13;;;;;;;2.77;1.20;;;;;;;;;;6160854;23;20492;-81
2023/04/15 02:40:58;;;;;;;5.95;1.80;;;;;;;;;;6268505;22;20058;-80
2023/04/15 02:43:42;;;;;;;6.90;1.70;;;;;;;;;;6271816;22;20007;-80
2023/04/15 02:46:17;;;;;;;8.02;2.10;;;;;;;;;;6245798;22;20406;-80
2023/04/15 02:49:07;;;;;;;4.30;1.30;;;;;;;;;;6244748;22;20007;-81
2023/04/15 02:51:38;;;;;;;5.13;1.00;;;;;;;;;;6245073;22;20046;-81
2023/04/15 02:54:07;;;;;;;4.95;1.10;;;;;;;;;;6272414;22;20007;-80
2023/04/15 02:57:13;;;;;;;2.40;0.80;;;;;;;;;;6272836;22;20011;-80
2023/04/15 03:40:49;;;;;;;7.65;3.05;;;;;;;;;;6241577;23;20478;-80
2023/04/15 03:43:58;;;;;;;;;;;;;;;;;;;;;
2023/04/15 03:46:38;;;;;;;6.95;2.00;;;;;;;;;;6233559;23;20004;-80
2023/04/15 03:49:31;;;;;;;5.10;1.98;;;;;;;;;;6238531;23;20518;-81
2023/04/15 03:51:59;;;;;;;;;;;;;;;;;;6240718;23;20103;-80
2023/04/15 03:54:40;;;;;;;5.45;1.48;;;;;;;;;;6212781;23;19904;-81
2023/04/15 03:57:23;;;;;;;3.00;1.40;;;;;;;;;;6238336;23;20426;-81
2023/04/15 04:00:05;;;;;;;4.97;1.25;;;;;;;;;;6239269;23;20019;-81
2023/04/15 04:05:44;;;;;;;5.75;3.05;;;;;;;;;;6192452;23;20020;-81
2023/04/15 04:08:27;;;;;;;5.45;2.08;;;;;;;;;;6240760;23;20387;-81
2023/04/15 04:11:00;;;;;;;4.82;1.58;;;;;;;;;;6237335;23;20312;-81
2023/04/15 04:13:29;;;;;;;8.20;1.63;;;;;;;;;;6238089;23;20008;-81
2023/04/15 04:15:58;;;;;;;4.07;1.50;;;;;;;;;;6238116;23;20018;-80
2023/04/15 04:18:24;;;;;;;3.60;1.58;;;;;;;;;;6239990;23;20035;-81
2023/04/15 04:21:13;;;;;;;7.03;1.52;;;;;;;;;;6240753;23;20015;-81
2023/04/15 04:23:44;;;;;;;6.30;1.83;;;;;;;;;;6240915;23;20008;-80
2023/04/15 04:26:18;;;;;;;6.90;1.67;;;;;;;;;;6238422;23;20012;-80
2023/04/15 04:29:18;;;;;;;6.20;2.38;;;;;;;;;;6238193;23;20016;-80
2023/04/15 04:35:10;;;;;;;5.28;2.10;;;;;;;;;;6122276;23;20036;-80
2023/04/15 04:37:42;;;;;;;7.53;2.20;;;;;;;;;;6238345;23;20470;-80
2023/04/15 04:40:10;;;;;;;5.13;1.52;;;;;;;;;;6238793;23;20459;-81
2023/04/15 04:44:19;;;;;;;;;;;;;;;;;;;;;
2023/04/15 04:49:44;;;;;;;4.03;1.00;;;;;;;;;;6088387;23;20437;-81
2023/04/15 04:52:12;;;;;;;3.20;1.00;;;;;;;;;;6137645;23;20340;-80
2023/04/15 04:54:52;;;;;;;3.00;0.80;;;;;;;;;;6240740;23;20312;-81
2023/04/15 04:57:40;;;;;;;;;;;;;;;;;;;;;
2023/04/15 05:03:20;;;;;;;5.30;1.67;;;;;;;;;;6240725;23;20024;-80
2023/04/15 05:05:54;;;;;;;7.10;2.05;;;;;;;;;;6238531;23;20074;-80
2023/04/15 05:08:45;;;;;;;7.68;2.70;;;;;;;;;;6207380;23;20015;-80
2023/04/15 05:11:12;;;;;;;4.88;1.75;;;;;;;;;;6206562;23;20216;-80
2023/04/15 05:14:13;;;;;;;6.68;1.85;;;;;;;;;;6207367;23;20016;-83
2023/04/15 05:17:15;;;;;;;;;;;;;;;;;;;;;
2023/04/15 05:23:17;;;;;;;11.55;3.90;;;;;;;;;;6234938;23;21503;-81
2023/04/15 05:29:32;;;;;;;2.45;0.80;;;;;;;;;;6228533;23;20020;-81
2023/04/15 05:32:02;;;;;;;1.70;0.50;;;;;;;;;;6239374;23;20016;-81
2023/04/15 05:34:31;;;;;;;4.80;0.47;;;;;;;;;;6238518;23;20648;-82
2023/04/15 05:37:23;;;;;;;2.50;0.57;;;;;;;;;;6239426;23;20031;-82
2023/04/15 06:07:30;;;;;;;2.97;0.90;;;;;;;;;;6241638;22;20028;-84
2023/04/15 06:13:00;;;;;;;3.25;0.70;;;;;;;;;;6241430;22;20840;-78
2023/04/15 06:15:35;;;;;;;3.55;0.70;;;;;;;;;;6208109;23;20087;-78
2023/04/15 06:31:35;;;;;;;5.97;1.95;;;;;;;;;;6251732;22;20027;-82
2023/04/15 07:03:40;;;;;;;8.18;2.47;;;;;;;;;;6239604;23;20805;-81
2023/04/15 07:06:09;;;;;;;7.05;2.28;;;;;;;;;;6238172;23;20067;-84
2023/04/15 07:25:28;;;;;;;5.10;1.98;;;;;;;;;;6222237;22;20020;-85
2023/04/15 07:52:53;;;;;;;7.18;1.90;;;;;;;;;;6232682;22;20042;-82
2023/04/15 07:55:45;;;;;;;8.57;1.90;;;;;;;;;;6237934;23;20138;-82
2023/04/15 07:58:46;;;;;;;;;;;;;;;;;;;;;
2023/04/15 08:01:12;;;;;;;6.97;1.50;;;;;;;;;;6239211;23;20016;-81
2023/04/15 08:09:25;;;;;;;5.05;1.48;;;;;;;;;;6130888;23;20123;-85
2023/04/15 09:01:54;;;;;;;2.70;0.70;;;;;;;;;;6237906;23;20400;-83
2023/04/15 09:05:10;;;;;;;;;;;;;;;;;;;;;
2023/04/15 09:08:16;;;;;;;3.35;0.30;;;;;;;;;;6239221;23;20099;-81
2023/04/15 09:17:41;;;;;;;3.92;0.50;;;;;;;;;;6236314;22;20030;-82
2023/04/15 09:26:33;;;;;;;;;;;;;;;;;;;;;
2023/04/15 09:32:40;;;;;;;;;;;;;;;;;;;;;
2023/04/15 10:18:18;;;;;;;6.68;3.15;;;;;;;;;;6221936;23;20015;-83
2023/04/15 10:20:58;;;;;;;6.30;3.75;;;;;;;;;;6240713;23;20079;-82
2023/04/15 10:30:18;;;;;;;7.55;5.32;;;;;;;;;;6209016;23;20046;-84
2023/04/15 10:33:20;;;;;;;;;;;;;;;;;;;;;
2023/04/15 10:39:39;;;;;;;;;;;;;;;;;;;;;
2023/04/15 11:00:51;;;;;;;1.30;0.40;;;;;;;;;;6235440;22;20055;-79
2023/04/15 11:31:13;;;;;;;;;;;;;;;;;;;;;
2023/04/15 13:30:08;;;;;;;0.70;0.22;;;;;;;;;;6223436;22;20996;-82
2023/04/15 13:32:39;;;;;;;0.52;0.20;;;;;;;;;;6246329;22;20051;-82
2023/04/15 13:35:06;;;;;;;0.75;0.28;;;;;;;;;;6246749;22;20138;-81
2023/04/15 13:37:32;;;;;;;0.85;0.20;;;;;;;;;;6273615;22;20011;-81
2023/04/15 13:40:16;;;;;;;;;;;;;;;;;;;;;
2023/04/15 13:42:42;;;;;;;1.00;0.30;;;;;;;;;;6273135;22;20083;-81
2023/04/15 13:45:08;;;;;;;1.50;0.60;;;;;;;;;;6246113;22;20003;-81
2023/04/15 13:47:34;;;;;;;3.63;0.60;;;;;;;;;;6245390;22;20699;-81
2023/04/15 13:50:00;;;;;;;2.17;0.65;;;;;;;;;;6272249;22;20010;-82
2023/04/15 13:52:44;;;;;;;1.27;0.55;;;;;;;;;;6246545;22;20068;-82
2023/04/15 13:55:33;;;;;;;1.73;0.50;;;;;;;;;;6245997;22;20449;-82
2023/04/15 14:01:06;;;;;;;1.52;0.25;;;;;;;;;;6149491;23;20025;-82
2023/04/15 14:03:37;;;;;;;1.02;0.30;;;;;;;;;;6174860;23;20036;-81
2023/04/15 14:06:04;;;;;;;1.38;0.40;;;;;;;;;;6180194;23;20437;-82
2023/04/15 14:08:30;;;;;;;1.67;0.30;;;;;;;;;;6180622;23;20032;-82
2023/04/15 14:10:56;;;;;;;1.95;0.55;;;;;;;;;;6182812;23;20436;-82
2023/04/15 14:13:22;;;;;;;1.48;0.32;;;;;;;;;;6180373;23;20040;-81
2023/04/15 14:15:48;;;;;;;2.78;0.45;;;;;;;;;;6182868;23;19997;-79
2023/04/15 14:18:14;;;;;;;0.73;0.30;;;;;;;;;;6182225;23;20462;-80
2023/04/15 14:20:40;;;;;;;1.38;0.40;;;;;;;;;;6182359;23;20005;-81
2023/04/15 14:23:06;;;;;;;1.10;0.40;;;;;;;;;;6180391;23;20072;-80
2023/04/15 14:25:32;;;;;;;0.73;0.30;;;;;;;;;;6182169;23;20005;-79
2023/04/15 14:27:58;;;;;;;1.25;0.45;;;;;;;;;;6181745;23;20467;-78
2023/04/15 14:30:24;;;;;;;1.95;0.40;;;;;;;;;;6182397;23;20040;-79
2023/04/15 14:32:50;;;;;;;0.63;0.20;;;;;;;;;;6181953;23;20298;-79
2023/04/15 14:35:16;;;;;;;1.02;0.30;;;;;;;;;;6180036;23;20017;-79
2023/04/15 14:37:42;;;;;;;0.90;0.20;;;;;;;;;;6181768;23;20008;-80
2023/04/15 14:40:08;;;;;;;0.88;0.30;;;;;;;;;;6182111;23;20028;-81
2023/04/15 14:42:36;;;;;;;1.27;0.40;;;;;;;;;;6181485;23;20706;-80
2023/04/15 14:45:02;;;;;;;0.98;0.35;;;;;;;;;;6183330;23;20009;-81
2023/04/15 14:47:28;;;;;;;1.13;0.30;;;;;;;;;;6182229;23;20073;-81
2023/04/15 14:49:54;;;;;;;0.75;0.38;;;;;;;;;;6183034;23;20036;-80
2023/04/15 14:52:20;;;;;;;1.00;0.30;;;;;;;;;;6180069;23;20016;-78
2023/04/15 14:59:58;;;;;;;2.63;0.30;;;;;;;;;;6202878;23;20167;-79
2023/04/15 15:02:40;;;;;;;1.08;0.30;;;;;;;;;;6241686;23;20054;-86
2023/04/15 15:16:29;;;;;;;;;;;;;;;;;;;;;
2023/04/15 15:19:14;;;;;;;6.05;0.40;;;;;;;;;;6169863;23;20017;-78
2023/04/15 16:48:56;;;;;;;4.43;1.95;;;;;;;;;;6229099;22;20050;-87
2023/04/15 16:51:41;;;;;;;8.48;2.80;;;;;;;;;;6239530;23;20016;-80
2023/04/15 16:54:07;;;;;;;7.18;3.97;;;;;;;;;;6239211;23;20024;-83
2023/04/15 16:56:33;;;;;;;4.57;2.42;;;;;;;;;;6240469;23;20012;-82
2023/04/15 16:59:00;;;;;;;4.22;2.25;;;;;;;;;;6243022;23;20138;-81
2023/04/15 17:01:26;;;;;;;5.10;1.88;;;;;;;;;;6238811;23;20019;-81
2023/04/15 17:03:52;;;;;;;4.03;1.75;;;;;;;;;;6240028;23;20012;-81
2023/04/15 17:06:18;;;;;;;5.05;1.35;;;;;;;;;;6238823;23;20005;-81
2023/04/15 17:08:44;;;;;;;7.18;4.45;;;;;;;;;;6240257;23;20005;-80
2023/04/15 17:11:11;;;;;;;12.68;7.28;;;;;;;;;;6241092;23;20004;-83
2023/04/15 17:13:37;;;;;;;3.47;1.50;;;;;;;;;;6242121;23;20023;-84
2023/04/15 17:16:03;;;;;;;12.82;8.73;;;;;;;;;;6240433;23;20020;-83
2023/04/15 17:18:30;;;;;;;8.38;5.68;;;;;;;;;;6239220;23;20331;-82
2023/04/15 17:20:56;;;;;;;4.43;2.05;;;;;;;;;;6241617;23;20012;-83
2023/04/15 17:23:22;;;;;;;3.97;1.75;;;;;;;;;;6238884;22;20016;-83
2023/04/15 17:25:50;;;;;;;5.55;2.78;;;;;;;;;;6213840;23;20012;-83
2023/04/15 17:28:16;;;;;;;7.72;5.20;;;;;;;;;;6214057;23;20008;-84
2023/04/15 17:30:42;;;;;;;4.45;1.30;;;;;;;;;;6213818;23;20103;-84
2023/04/15 17:33:08;;;;;;;3.45;1.25;;;;;;;;;;6214379;23;20098;-83
2023/04/15 17:35:34;;;;;;;4.55;1.10;;;;;;;;;;6215668;23;20023;-84
2023/04/15 17:38:01;;;;;;;6.57;1.73;;;;;;;;;;6215587;23;20014;-82
2023/04/15 17:40:27;;;;;;;5.72;2.70;;;;;;;;;;6215940;23;20015;-83
2023/04/15 17:47:58;;;;;;;1.52;0.55;;;;;;;;;;6273333;22;20034;-84
2023/04/15 17:50:24;;;;;;;4.70;1.40;;;;;;;;;;6273489;22;20354;-87
2023/04/15 17:52:51;;;;;;;5.35;1.90;;;;;;;;;;6271806;22;20003;-84
2023/04/15 18:37:41;;;;;;;3.33;1.48;;;;;;;;;;6210729;22;20341;-77
2023/04/15 18:46:53;;;;;;;4.03;1.25;;;;;;;;;;6238474;22;20364;-78
2023/04/15 18:49:31;;;;;;;;;;;;;;;;;;;;;
2023/04/15 18:55:25;;;;;;;3.23;1.30;;;;;;;;;;6077549;23;20045;-77
2023/04/15 20:20:26;;;;;;;9.93;4.88;;;;;;;;;;6180519;23;20040;-79
2023/04/15 20:22:52;;;;;;;15.20;8.55;;;;;;;;;;6179555;23;20005;-80
2023/04/15 20:25:18;;;;;;;13.15;7.72;;;;;;;;;;6181061;23;20451;-79
2023/04/15 20:27:44;;;;;;;13.85;6.85;;;;;;;;;;6181179;23;20036;-79
2023/04/15 20:30:10;;;;;;;6.95;3.65;;;;;;;;;;6178238;23;20013;-79
2023/04/15 20:32:37;;;;;;;7.85;4.07;;;;;;;;;;6180773;23;20440;-79
2023/04/15 20:35:03;;;;;;;6.85;3.03;;;;;;;;;;6179321;23;20039;-79
2023/04/15 20:37:31;;;;;;;6.53;3.35;;;;;;;;;;6180560;23;20121;-79
2023/04/15 20:39:57;;;;;;;6.03;2.58;;;;;;;;;;6180925;23;20405;-80
2023/04/15 20:42:23;;;;;;;5.13;2.70;;;;;;;;;;6180996;23;20067;-80
2023/04/15 20:44:50;;;;;;;6.82;2.95;;;;;;;;;;6182603;23;20084;-79
2023/04/15 20:47:15;;;;;;;7.80;4.45;;;;;;;;;;6181710;23;20016;-82
2023/04/15 20:49:41;;;;;;;8.75;4.28;;;;;;;;;;6181994;23;20005;-81
2023/04/15 20:52:08;;;;;;;6.88;3.58;;;;;;;;;;6181800;23;20471;-81
2023/04/15 20:54:34;;;;;;;9.18;4.50;;;;;;;;;;6183242;23;20013;-84
2023/04/15 20:57:00;;;;;;;6.10;3.30;;;;;;;;;;6179786;23;20063;-84
2023/04/15 20:59:27;;;;;;;5.63;2.80;;;;;;;;;;6178886;23;20013;-85
2023/04/15 21:01:55;;;;;;;4.72;1.77;;;;;;;;;;6180050;23;20080;-85
2023/04/15 21:04:23;;;;;;;3.65;1.85;;;;;;;;;;6179830;23;20024;-85
2023/04/15 21:06:50;;;;;;;3.58;1.55;;;;;;;;;;6179377;23;20013;-84
2023/04/15 21:09:15;;;;;;;4.55;1.80;;;;;;;;;;6181408;23;20428;-79
2023/04/15 21:11:45;;;;;;;3.83;1.60;;;;;;;;;;6185092;23;20028;-80
2023/04/15 21:14:11;;;;;;;3.20;1.08;;;;;;;;;;6185113;23;20478;-87
2023/04/15 21:16:37;;;;;;;4.10;1.63;;;;;;;;;;6182187;23;20040;-82
2023/04/15 21:19:03;;;;;;;3.97;2.10;;;;;;;;;;6182679;23;20330;-81
2023/04/15 21:21:30;;;;;;;5.85;2.28;;;;;;;;;;6180551;23;20013;-81
2023/04/15 21:23:56;;;;;;;6.80;1.98;;;;;;;;;;6180439;23;20027;-80
